createdAt,value
2023-04-15T00:08:06.456Z,3.53
2023-04-15T00:18:09.082Z,3.50
2023-04-15T00:28:13.737Z,4.18
2023-04-15T00:38:16.372Z,4.43
2023-04-15T00:48:21.289Z,3.72
2023-04-15T00:58:24.884Z,3.80
2023-04-15T01:08:29.826Z,3.30
2023-04-15T01:18:32.888Z,3.92
2023-04-15T01:28:37.617Z,4.00
2023-04-15T01:38:40.321Z,4.30
2023-04-15T01:48:44.562Z,3.78
2023-04-15T01:58:47.626Z,4.60
2023-04-15T02:08:51.594Z,4.10
2023-04-15T02:18:54.501Z,3.90
2023-04-15T02:28:58.688Z,4.55
2023-04-15T02:39:01.949Z,4.68
2023-04-15T02:49:06.479Z,5.28
2023-04-15T02:59:09.112Z,5.00
2023-04-15T03:09:13.133Z,5.00
2023-04-15T03:19:15.893Z,5.47
2023-04-15T03:29:19.860Z,6.00
2023-04-15T03:39:22.529Z,6.30
2023-04-15T03:49:26.543Z,5.32
2023-04-15T03:59:29.189Z,5.63
2023-04-15T04:09:33.232Z,6.78
2023-04-15T04:19:36.025Z,7.07
2023-04-15T04:29:40.036Z,7.07
2023-04-15T04:39:42.958Z,7.82
2023-04-15T04:49:47.017Z,7.93
2023-04-15T04:59:49.662Z,7.60
2023-04-15T05:09:53.684Z,8.18
2023-04-15T05:19:56.359Z,7.70
2023-04-15T05:30:01.915Z,7.18
2023-04-15T05:40:05.072Z,6.50
2023-04-15T05:50:10.011Z,6.25
2023-04-15T06:00:13.559Z,6.25
2023-04-15T06:10:17.672Z,6.60
2023-04-15T06:20:20.316Z,5.32
2023-04-15T06:30:24.576Z,6.68
2023-04-15T06:40:27.713Z,4.85
2023-04-15T06:50:31.880Z,5.65
2023-04-15T07:00:34.699Z,4.85
2023-04-15T07:10:38.670Z,5.78
2023-04-15T07:20:41.335Z,5.03
2023-04-15T07:30:45.652Z,4.13
2023-04-15T07:40:48.442Z,4.32
2023-04-15T07:50:52.766Z,3.50
2023-04-15T08:00:55.731Z,4.15
2023-04-15T08:11:00.310Z,3.65
2023-04-15T08:21:02.996Z,3.22
2023-04-15T08:31:07.258Z,3.08
2023-04-15T08:41:14.108Z,3.40
2023-04-15T08:51:18.755Z,2.78
2023-04-15T09:01:21.997Z,2.75
2023-04-15T09:11:26.100Z,3.30
2023-04-15T09:21:29.555Z,3.40
2023-04-15T09:31:33.692Z,3.03
2023-04-15T09:41:36.681Z,2.70
2023-04-15T09:51:42.161Z,2.58
2023-04-15T10:01:46.393Z,2.08
2023-04-15T10:11:51.521Z,2.00
2023-04-15T10:21:55.313Z,1.83
2023-04-15T10:32:00.747Z,2.03
2023-04-15T10:42:08.499Z,2.25
2023-04-15T10:52:13.313Z,2.17
2023-04-15T11:02:16.544Z,1.67
2023-04-15T11:12:20.878Z,1.90
2023-04-15T11:22:23.531Z,2.13
2023-04-15T11:32:28.148Z,1.50
2023-04-15T11:42:42.837Z,2.00
2023-04-15T11:52:57.088Z,1.63
2023-04-15T12:03:13.477Z,1.50
2023-04-15T12:13:17.697Z,2.10
2023-04-15T12:23:20.790Z,1.67
2023-04-15T12:33:24.799Z,1.83
2023-04-15T12:43:27.596Z,2.10
2023-04-15T12:53:31.588Z,1.90
2023-04-15T13:03:34.415Z,1.88
2023-04-15T13:13:38.792Z,1.88
2023-04-15T13:23:42.905Z,1.55
2023-04-15T13:33:46.915Z,1.48
2023-04-15T13:43:49.612Z,1.95
2023-04-15T13:53:53.709Z,1.85
2023-04-15T14:03:56.638Z,2.40
2023-04-15T14:14:00.716Z,4.07
2023-04-15T14:24:03.395Z,3.40
2023-04-15T14:34:07.418Z,4.05
2023-04-15T14:44:11.493Z,4.63
2023-04-15T14:54:15.590Z,5.85
2023-04-15T15:04:18.340Z,7.03
2023-04-15T15:14:22.562Z,6.88
2023-04-15T15:24:25.629Z,7.22
2023-04-15T15:34:29.673Z,9.52
2023-04-15T15:44:34.054Z,10.48
2023-04-15T15:54:38.632Z,17.88
2023-04-15T16:04:43.220Z,11.20
2023-04-15T16:14:47.710Z,11.85
2023-04-15T16:24:50.415Z,11.95
2023-04-15T16:34:54.790Z,12.68
2023-04-15T16:44:57.464Z,13.05
2023-04-15T16:55:01.764Z,13.63
2023-04-15T17:05:04.780Z,14.20
2023-04-15T17:15:10.328Z,14.80
2023-04-15T17:25:14.923Z,13.80
2023-04-15T17:35:19.476Z,13.18
2023-04-15T17:45:22.173Z,15.27
2023-04-15T17:55:26.177Z,15.13
2023-04-15T18:05:28.887Z,14.18
2023-04-15T18:15:33.707Z,14.85
2023-04-15T18:25:38.265Z,15.52
2023-04-15T18:35:42.909Z,16.98
2023-04-15T18:45:45.815Z,15.77
2023-04-15T18:55:49.824Z,14.00
2023-04-15T19:05:52.550Z,15.07
2023-04-15T19:15:56.673Z,15.75
2023-04-15T19:25:59.722Z,14.45
2023-04-15T19:36:05.553Z,13.65
2023-04-15T19:46:08.557Z,14.27
2023-04-15T19:56:12.551Z,13.90
2023-04-15T20:06:15.905Z,12.88
2023-04-15T20:16:19.971Z,14.05
2023-04-15T20:26:24.755Z,12.65
2023-04-15T20:36:28.941Z,14.13
2023-04-15T20:46:31.657Z,13.05
2023-04-15T20:56:36.227Z,12.73
2023-04-15T21:06:39.193Z,12.45
2023-04-15T21:16:43.786Z,13.05
2023-04-15T21:26:46.520Z,12.43
2023-04-15T21:36:50.599Z,13.00
2023-04-15T21:46:53.395Z,13.07
2023-04-15T21:56:57.919Z,13.68
2023-04-15T22:07:02.316Z,13.57
2023-04-15T22:17:06.579Z,13.20
2023-04-15T22:27:09.495Z,13.82
2023-04-15T22:37:13.603Z,14.93
2023-04-15T22:47:16.313Z,13.45
2023-04-15T22:57:20.348Z,14.38
2023-04-15T23:07:23.059Z,15.15
2023-04-15T23:17:27.518Z,13.85
2023-04-15T23:27:30.461Z,14.70
2023-04-15T23:37:34.478Z,15.05
2023-04-15T23:47:37.229Z,15.25
2023-04-15T23:57:42.120Z,16.80
